MAPA DE AEROPUERTO

INFORMACIÓN METAR y TAF

METAR FOR LEDA
ADDS - METARS form results

(0918 UTC 05 December 2020)
Data provider http://aviationweather.gov/metar/data/
 
METAR text: LEDA 050900Z 24005KT CAVOK 02/01 Q0999
Conditions at: LEDA (LLEIDA-ALGUAIRE , ES) observed 0900 UTC 05 December 2020
Temperature: 2.0°C (36°F)
Dewpoint: 1.0°C (34°F) [RH = 93%]
Pressure (altimeter): 29.50 inches Hg (999.0 mb)
Winds: from the WSW (240 degrees) at 6 MPH (5 knots; 2.6 m/s)
Visibility: 6 or more miles (10+ km)
Ceiling: ceiling and visibility are OK
Clouds: unknown
Weather: no significant weather observed at this time

METAR text: LEDA 050830Z VRB01KT CAVOK 01/00 Q0999
Conditions at: LEDA (LLEIDA-ALGUAIRE , ES) observed 0830 UTC 05 December 2020
Temperature: 1.0°C (34°F)
Dewpoint: 0.0°C (32°F) [RH = 93%]
Pressure (altimeter): 29.50 inches Hg (999.0 mb)
Winds: variable direction winds at 1 MPH (1 knots; 0.5 m/s)
Visibility: 6 or more miles (10+ km)
Ceiling: ceiling and visibility are OK
Clouds: unknown
Weather: no significant weather observed at this time